Time;durP1;ratioP1;P1;durP2;ratioP2;P2;SDS_P1;SDS_P2;PMS_P1;PMS_P2;Temp;Humidity;BMP_temperature;BMP_pressure;BME280_temperature;BME280_humidity;BME280_pressure;Samples;Min_cycle;Max_cycle;Signal;HPM_P1;HPM_P2
2022/09/26 00:00:33;;;;;;;4.83;2.70;;;;;;;;;;5046260;28;20182;-69
2022/09/26 00:02:59;;;;;;;3.90;2.28;;;;;;;;;;5038153;28;20182;-68
2022/09/26 00:05:24;;;;;;;6.90;2.87;;;;;;;;;;5041838;28;20626;-69
2022/09/26 00:07:49;;;;;;;3.85;2.67;;;;;;;;;;5036270;28;20198;-69
2022/09/26 00:10:15;;;;;;;4.55;2.25;;;;;;;;;;5041233;28;20260;-68
2022/09/26 00:12:40;;;;;;;5.50;2.78;;;;;;;;;;5046499;28;20261;-69
2022/09/26 00:15:06;;;;;;;4.95;2.95;;;;;;;;;;5041330;28;20226;-68
2022/09/26 00:17:31;;;;;;;3.70;2.90;;;;;;;;;;5047929;28;20517;-69
2022/09/26 00:19:56;;;;;;;4.85;2.78;;;;;;;;;;5038064;28;20244;-69
2022/09/26 00:22:22;;;;;;;7.20;3.05;;;;;;;;;;5033066;28;20181;-68
2022/09/26 00:24:47;;;;;;;5.95;3.17;;;;;;;;;;5045364;28;20196;-68
2022/09/26 00:27:12;;;;;;;8.18;3.15;;;;;;;;;;5044805;28;20252;-69
2022/09/26 00:29:38;;;;;;;5.05;3.22;;;;;;;;;;5041097;28;20182;-68
2022/09/26 00:32:03;;;;;;;8.55;3.70;;;;;;;;;;5034914;28;20289;-68
2022/09/26 00:34:29;;;;;;;5.57;3.72;;;;;;;;;;5036712;28;20208;-69
2022/09/26 00:36:54;;;;;;;9.30;3.83;;;;;;;;;;5035035;28;20244;-69
2022/09/26 00:39:19;;;;;;;7.35;3.47;;;;;;;;;;5027649;28;20642;-69
2022/09/26 00:41:45;;;;;;;3.38;2.70;;;;;;;;;;5040332;28;20235;-69
2022/09/26 00:44:46;;;;;;;8.38;3.13;;;;;;;;;;5033632;28;20528;-69
2022/09/26 00:47:32;;;;;;;4.25;3.17;;;;;;;;;;5030437;28;20477;-68
2022/09/26 00:50:02;;;;;;;8.07;3.55;;;;;;;;;;5027676;28;20531;-67
2022/09/26 00:52:36;;;;;;;5.53;3.38;;;;;;;;;;5031406;28;20189;-66
2022/09/26 00:55:06;;;;;;;7.82;4.15;;;;;;;;;;5047132;28;20204;-68
2022/09/26 00:57:39;;;;;;;15.70;4.90;;;;;;;;;;5033917;28;20189;-68
2022/09/26 01:00:08;;;;;;;5.45;3.40;;;;;;;;;;5034594;28;20494;-68
2022/09/26 01:02:34;;;;;;;8.38;4.22;;;;;;;;;;5037298;28;20264;-68
2022/09/26 01:05:02;;;;;;;6.70;4.22;;;;;;;;;;5035943;28;20177;-68
2022/09/26 01:07:28;;;;;;;6.50;4.40;;;;;;;;;;5039331;28;20217;-68
2022/09/26 01:09:54;;;;;;;7.03;4.10;;;;;;;;;;5042566;28;20173;-67
2022/09/26 01:12:21;;;;;;;5.82;4.70;;;;;;;;;;5038882;28;20194;-68
2022/09/26 01:14:49;;;;;;;7.53;5.18;;;;;;;;;;5048282;28;20182;-67
2022/09/26 01:17:15;;;;;;;6.65;4.60;;;;;;;;;;5049250;28;20552;-68
2022/09/26 01:20:06;;;;;;;6.93;4.80;;;;;;;;;;5041773;28;20177;-68
2022/09/26 01:22:58;;;;;;;11.02;5.05;;;;;;;;;;5050885;28;20294;-67
2022/09/26 01:25:50;;;;;;;7.55;5.05;;;;;;;;;;5036405;28;20514;-67
2022/09/26 01:28:28;;;;;;;8.55;5.20;;;;;;;;;;5040655;28;20230;-67
2022/09/26 01:31:19;;;;;;;6.10;4.43;;;;;;;;;;5050565;28;20181;-68
2022/09/26 01:33:48;;;;;;;6.50;4.70;;;;;;;;;;5045599;28;20532;-68
2022/09/26 01:36:21;;;;;;;10.23;4.95;;;;;;;;;;5047556;28;20267;-69
2022/09/26 01:39:17;;;;;;;8.95;5.15;;;;;;;;;;5031493;28;20280;-68
2022/09/26 01:42:08;;;;;;;9.20;4.55;;;;;;;;;;5042264;28;20192;-68
2022/09/26 01:44:47;;;;;;;8.57;5.28;;;;;;;;;;5041179;28;20185;-69
2022/09/26 01:47:24;;;;;;;9.05;5.15;;;;;;;;;;5031687;28;20209;-69
2022/09/26 01:50:20;;;;;;;8.23;5.72;;;;;;;;;;5036646;28;20629;-67
2022/09/26 01:53:05;;;;;;;11.88;5.68;;;;;;;;;;5029973;28;20261;-69
2022/09/26 01:55:40;;;;;;;7.30;5.32;;;;;;;;;;5031544;28;20634;-69
2022/09/26 01:58:27;;;;;;;12.65;6.60;;;;;;;;;;5040847;28;20260;-67
2022/09/26 02:00:57;;;;;;;7.68;5.68;;;;;;;;;;5048014;28;20221;-68
2022/09/26 02:03:26;;;;;;;9.07;6.05;;;;;;;;;;5035567;28;20182;-72
2022/09/26 02:05:59;;;;;;;11.43;6.32;;;;;;;;;;5039275;28;20182;-69
2022/09/26 02:08:38;;;;;;;10.63;6.07;;;;;;;;;;5031887;28;20197;-70
2022/09/26 02:11:14;;;;;;;11.02;5.88;;;;;;;;;;5047534;28;20616;-68
2022/09/26 02:13:55;;;;;;;10.10;6.20;;;;;;;;;;5039651;28;20184;-69
2022/09/26 02:16:43;;;;;;;11.52;6.05;;;;;;;;;;5032768;28;20697;-69
2022/09/26 02:19:09;;;;;;;11.95;6.38;;;;;;;;;;5039058;28;20831;-68
2022/09/26 02:21:35;;;;;;;10.82;6.93;;;;;;;;;;5033136;28;20188;-67
2022/09/26 02:24:01;;;;;;;11.20;7.18;;;;;;;;;;5040606;28;20182;-69
2022/09/26 02:26:27;;;;;;;12.20;6.60;;;;;;;;;;5034841;28;20186;-69
2022/09/26 02:28:53;;;;;;;14.68;6.82;;;;;;;;;;5032793;28;20323;-70
2022/09/26 02:31:23;;;;;;;11.05;6.93;;;;;;;;;;5029163;28;20190;-68
2022/09/26 02:33:50;;;;;;;10.45;7.85;;;;;;;;;;5030433;28;20190;-68
2022/09/26 02:36:17;;;;;;;9.35;6.72;;;;;;;;;;5034581;28;20653;-69
2022/09/26 02:38:42;;;;;;;8.10;6.40;;;;;;;;;;5043125;28;20259;-69
2022/09/26 02:41:23;;;;;;;12.82;6.25;;;;;;;;;;5038695;28;20661;-68
2022/09/26 02:43:48;;;;;;;9.52;6.57;;;;;;;;;;5034566;28;20177;-67
2022/09/26 02:46:28;;;;;;;10.10;7.05;;;;;;;;;;5045440;28;20186;-68
2022/09/26 02:49:17;;;;;;;11.05;7.25;;;;;;;;;;5033741;28;20197;-68
2022/09/26 02:52:00;;;;;;;11.90;7.40;;;;;;;;;;5034096;28;20224;-69
2022/09/26 02:55:06;;;;;;;12.05;7.03;;;;;;;;;;5042177;28;20250;-68
2022/09/26 02:57:38;;;;;;;18.08;8.18;;;;;;;;;;5015016;28;20201;-69
2022/09/26 03:00:12;;;;;;;12.07;7.82;;;;;;;;;;5033760;28;20216;-67
2022/09/26 03:02:44;;;;;;;13.88;8.15;;;;;;;;;;5043170;28;20200;-68
2022/09/26 03:05:15;;;;;;;12.77;7.13;;;;;;;;;;5029851;28;20641;-68
2022/09/26 03:07:49;;;;;;;10.48;8.10;;;;;;;;;;5038028;28;20213;-68
2022/09/26 03:10:16;;;;;;;10.82;7.85;;;;;;;;;;5048837;28;20169;-68
2022/09/26 03:12:43;;;;;;;10.85;7.40;;;;;;;;;;5033327;28;20236;-68
2022/09/26 03:15:10;;;;;;;11.45;8.20;;;;;;;;;;5035032;28;20188;-69
2022/09/26 03:17:40;;;;;;;13.50;7.70;;;;;;;;;;5033461;28;20190;-67
2022/09/26 03:20:10;;;;;;;10.20;7.88;;;;;;;;;;5040020;28;20318;-69
2022/09/26 03:22:36;;;;;;;14.80;8.52;;;;;;;;;;5043375;28;20181;-68
2022/09/26 03:25:05;;;;;;;17.17;9.00;;;;;;;;;;5044369;28;20169;-68
2022/09/26 03:27:30;;;;;;;11.23;8.15;;;;;;;;;;5038098;28;20462;-70
2022/09/26 03:29:58;;;;;;;14.00;8.70;;;;;;;;;;5031371;28;20182;-69
2022/09/26 03:32:23;;;;;;;13.55;8.55;;;;;;;;;;5046858;28;20251;-69
2022/09/26 03:34:49;;;;;;;10.30;7.93;;;;;;;;;;5039455;28;20621;-68
2022/09/26 03:37:15;;;;;;;9.80;8.10;;;;;;;;;;5044785;28;20231;-69
2022/09/26 03:39:42;;;;;;;10.90;7.85;;;;;;;;;;5039338;28;20178;-68
2022/09/26 03:42:07;;;;;;;10.48;8.05;;;;;;;;;;5041286;28;20181;-69
2022/09/26 03:44:32;;;;;;;19.38;7.38;;;;;;;;;;5028767;28;20570;-69
2022/09/26 03:46:58;;;;;;;10.77;7.88;;;;;;;;;;5025866;28;20221;-68
2022/09/26 03:49:23;;;;;;;11.82;7.47;;;;;;;;;;5030501;28;20650;-68
2022/09/26 03:51:48;;;;;;;12.07;7.25;;;;;;;;;;5031596;28;20261;-69
2022/09/26 03:54:14;;;;;;;9.75;7.50;;;;;;;;;;5031345;28;20199;-69
2022/09/26 03:56:40;;;;;;;8.65;7.28;;;;;;;;;;5029215;28;20261;-69
2022/09/26 03:59:05;;;;;;;10.90;7.35;;;;;;;;;;5029654;28;20193;-69
2022/09/26 04:01:30;;;;;;;11.77;7.32;;;;;;;;;;5029220;28;20209;-69
2022/09/26 04:03:56;;;;;;;10.75;7.13;;;;;;;;;;5029922;28;20185;-69
2022/09/26 04:06:22;;;;;;;10.77;7.32;;;;;;;;;;5032562;28;20296;-68
2022/09/26 04:08:51;;;;;;;9.27;7.03;;;;;;;;;;5035215;28;20275;-69
2022/09/26 04:11:19;;;;;;;12.48;7.22;;;;;;;;;;5035390;28;20178;-69
2022/09/26 04:13:46;;;;;;;12.15;7.10;;;;;;;;;;5047636;28;20202;-69
2022/09/26 04:16:11;;;;;;;10.45;6.43;;;;;;;;;;5029549;28;20174;-69
2022/09/26 04:18:37;;;;;;;15.85;6.85;;;;;;;;;;5027996;28;20182;-69
2022/09/26 04:21:08;;;;;;;10.75;6.45;;;;;;;;;;5039227;28;20185;-70
2022/09/26 04:23:35;;;;;;;9.45;6.70;;;;;;;;;;5028116;28;20189;-71
2022/09/26 04:26:04;;;;;;;12.70;6.70;;;;;;;;;;5031046;28;20182;-69
2022/09/26 04:28:30;;;;;;;10.98;6.57;;;;;;;;;;5045376;28;20233;-70
2022/09/26 04:31:00;;;;;;;9.38;6.25;;;;;;;;;;5037946;28;20197;-72
2022/09/26 04:33:25;;;;;;;12.65;6.22;;;;;;;;;;5043002;28;20184;-69
2022/09/26 04:35:51;;;;;;;10.45;6.63;;;;;;;;;;5028076;28;20685;-70
2022/09/26 04:38:19;;;;;;;12.57;6.50;;;;;;;;;;5041139;28;20200;-70
2022/09/26 04:40:45;;;;;;;11.13;5.65;;;;;;;;;;5028426;28;20525;-69
2022/09/26 04:43:11;;;;;;;8.65;6.68;;;;;;;;;;5030803;28;20472;-69
2022/09/26 04:45:40;;;;;;;10.68;5.97;;;;;;;;;;5042895;28;20634;-69
2022/09/26 04:48:06;;;;;;;8.00;6.22;;;;;;;;;;5037373;28;20625;-69
2022/09/26 04:50:31;;;;;;;14.13;6.15;;;;;;;;;;5036136;28;20280;-68
2022/09/26 04:52:59;;;;;;;9.50;6.47;;;;;;;;;;5043315;28;20272;-68
2022/09/26 04:55:25;;;;;;;11.68;6.45;;;;;;;;;;5046482;28;20213;-69
2022/09/26 04:57:50;;;;;;;7.78;5.93;;;;;;;;;;5041719;28;20235;-69
2022/09/26 05:00:17;;;;;;;11.05;6.43;;;;;;;;;;5051651;28;20177;-69
2022/09/26 05:02:44;;;;;;;8.97;6.10;;;;;;;;;;5036375;28;20288;-68
2022/09/26 05:05:09;;;;;;;15.02;6.65;;;;;;;;;;5051439;28;20268;-69
2022/09/26 05:07:41;;;;;;;11.93;5.97;;;;;;;;;;5033800;28;20280;-68
2022/09/26 05:10:09;;;;;;;11.90;6.97;;;;;;;;;;5029996;28;20421;-70
2022/09/26 05:12:38;;;;;;;11.60;6.20;;;;;;;;;;5031933;28;20190;-68
2022/09/26 05:15:07;;;;;;;11.50;5.77;;;;;;;;;;5030102;28;20205;-70
2022/09/26 05:17:33;;;;;;;20.63;7.78;;;;;;;;;;5028242;28;20202;-67
2022/09/26 05:19:59;;;;;;;8.83;6.07;;;;;;;;;;5034117;28;20193;-69
2022/09/26 05:22:29;;;;;;;9.63;5.80;;;;;;;;;;5033865;28;20272;-68
2022/09/26 05:27:38;;;;;;;9.27;5.95;;;;;;;;;;5037034;28;20569;-69
2022/09/26 05:30:04;;;;;;;11.63;6.00;;;;;;;;;;5029814;28;20234;-68
2022/09/26 05:32:29;;;;;;;9.23;5.60;;;;;;;;;;5032404;28;20632;-68
2022/09/26 05:34:55;;;;;;;11.77;5.68;;;;;;;;;;5030932;28;20390;-70
2022/09/26 05:37:21;;;;;;;9.43;4.95;;;;;;;;;;5030792;28;20178;-67
2022/09/26 05:42:30;;;;;;;8.32;5.07;;;;;;;;;;5038819;28;20205;-67
2022/09/26 05:44:55;;;;;;;6.53;5.17;;;;;;;;;;5038485;28;20177;-68
2022/09/26 05:47:20;;;;;;;10.40;5.22;;;;;;;;;;5044475;28;20209;-68
2022/09/26 05:49:46;;;;;;;10.90;5.00;;;;;;;;;;5048339;28;20272;-67
2022/09/26 05:52:11;;;;;;;7.60;4.90;;;;;;;;;;5032476;28;20185;-67
2022/09/26 05:54:36;;;;;;;8.18;5.18;;;;;;;;;;5029713;28;20184;-68
2022/09/26 05:57:02;;;;;;;7.57;5.07;;;;;;;;;;5038182;28;20274;-67
2022/09/26 05:59:27;;;;;;;8.10;4.80;;;;;;;;;;5034843;28;20184;-67
2022/09/26 06:01:53;;;;;;;9.18;4.97;;;;;;;;;;5037015;28;20277;-67
2022/09/26 06:04:19;;;;;;;10.50;4.88;;;;;;;;;;5052024;28;20181;-67
2022/09/26 06:06:44;;;;;;;7.55;4.63;;;;;;;;;;5039912;28;20181;-67
2022/09/26 06:09:09;;;;;;;10.15;4.18;;;;;;;;;;5039553;28;20293;-68
2022/09/26 06:11:34;;;;;;;5.95;3.90;;;;;;;;;;5034251;28;20196;-68
2022/09/26 06:14:00;;;;;;;6.15;3.55;;;;;;;;;;5030320;28;20177;-68
2022/09/26 06:16:25;;;;;;;6.55;4.88;;;;;;;;;;5029530;28;20190;-68
2022/09/26 06:18:51;;;;;;;6.15;3.90;;;;;;;;;;5035598;28;20587;-67
2022/09/26 06:21:18;;;;;;;10.38;4.20;;;;;;;;;;5031681;28;20232;-68
2022/09/26 06:23:44;;;;;;;12.20;3.92;;;;;;;;;;5036680;28;20178;-68
2022/09/26 06:26:14;;;;;;;11.60;3.97;;;;;;;;;;5034279;28;20181;-67
2022/09/26 06:28:40;;;;;;;5.60;3.75;;;;;;;;;;5040266;28;20249;-69
2022/09/26 06:31:14;;;;;;;6.47;3.80;;;;;;;;;;5030643;28;20182;-67
2022/09/26 06:33:40;;;;;;;8.32;4.03;;;;;;;;;;5039728;28;20210;-68
2022/09/26 06:36:07;;;;;;;5.80;3.20;;;;;;;;;;5041368;28;20701;-68
2022/09/26 06:38:33;;;;;;;4.97;3.58;;;;;;;;;;5028105;28;20186;-68
2022/09/26 06:40:58;;;;;;;3.72;3.25;;;;;;;;;;5027482;28;20201;-69
2022/09/26 06:43:23;;;;;;;11.45;4.15;;;;;;;;;;5029364;28;20239;-68
2022/09/26 06:45:49;;;;;;;9.70;3.80;;;;;;;;;;5032692;28;20565;-68
2022/09/26 06:48:16;;;;;;;14.52;4.47;;;;;;;;;;5029952;28;20374;-69
2022/09/26 06:50:41;;;;;;;7.85;3.58;;;;;;;;;;5034235;28;20181;-69
2022/09/26 06:53:07;;;;;;;6.10;3.90;;;;;;;;;;5034436;28;20182;-68
2022/09/26 06:55:32;;;;;;;9.05;3.70;;;;;;;;;;5027483;28;20193;-68
2022/09/26 06:57:57;;;;;;;7.65;3.78;;;;;;;;;;5029913;28;20185;-68
2022/09/26 07:00:23;;;;;;;10.02;3.90;;;;;;;;;;5028937;28;20174;-68
2022/09/26 07:02:53;;;;;;;6.57;3.35;;;;;;;;;;5028846;28;20209;-68
2022/09/26 07:05:20;;;;;;;5.50;3.33;;;;;;;;;;5031716;28;20186;-71
2022/09/26 07:07:47;;;;;;;9.95;3.60;;;;;;;;;;5035816;28;20291;-68
2022/09/26 07:10:14;;;;;;;5.88;3.42;;;;;;;;;;5030906;28;20181;-67
2022/09/26 07:12:42;;;;;;;9.57;3.70;;;;;;;;;;5028063;28;20178;-68
2022/09/26 07:15:13;;;;;;;9.50;3.70;;;;;;;;;;5027535;28;20186;-68
2022/09/26 07:17:39;;;;;;;8.45;3.92;;;;;;;;;;5028731;28;20587;-67
2022/09/26 07:20:10;;;;;;;9.43;3.90;;;;;;;;;;5026885;28;20178;-68
2022/09/26 07:22:35;;;;;;;5.32;3.83;;;;;;;;;;5031730;28;20190;-68
2022/09/26 07:25:01;;;;;;;5.78;3.30;;;;;;;;;;5030081;28;20683;-68
2022/09/26 07:27:26;;;;;;;6.97;3.60;;;;;;;;;;5028512;28;20202;-69
2022/09/26 07:29:52;;;;;;;6.70;2.80;;;;;;;;;;5028905;28;20226;-68
2022/09/26 07:32:17;;;;;;;7.65;3.58;;;;;;;;;;5033816;28;20671;-68
2022/09/26 07:34:43;;;;;;;4.72;3.03;;;;;;;;;;5031026;28;20198;-67
2022/09/26 07:37:08;;;;;;;5.43;3.05;;;;;;;;;;5032624;28;20170;-68
2022/09/26 07:39:34;;;;;;;5.65;3.20;;;;;;;;;;5030439;28;20184;-69
2022/09/26 07:42:01;;;;;;;5.82;3.13;;;;;;;;;;5028432;28;20634;-67
2022/09/26 07:44:27;;;;;;;11.05;3.15;;;;;;;;;;5036849;28;20641;-68
2022/09/26 07:52:21;;;;;;;6.00;3.35;;;;;;;;;;5028091;28;20688;-67
2022/09/26 07:54:46;;;;;;;5.53;3.03;;;;;;;;;;5037962;28;20269;-69
2022/09/26 07:57:12;;;;;;;5.22;3.40;;;;;;;;;;5033706;28;20281;-67
2022/09/26 07:59:38;;;;;;;4.10;2.85;;;;;;;;;;5030947;28;20257;-67
2022/09/26 08:02:03;;;;;;;7.10;3.35;;;;;;;;;;5034398;28;20190;-68
2022/09/26 08:04:29;;;;;;;6.65;3.15;;;;;;;;;;5031057;28;20231;-67
2022/09/26 08:06:56;;;;;;;5.55;3.50;;;;;;;;;;5030420;28;20627;-67
2022/09/26 08:09:21;;;;;;;5.28;3.80;;;;;;;;;;5037720;28;20284;-67
2022/09/26 08:11:46;;;;;;;7.95;3.35;;;;;;;;;;5042281;28;20815;-68
2022/09/26 08:14:12;;;;;;;6.03;3.30;;;;;;;;;;5028500;28;20200;-70
2022/09/26 08:16:40;;;;;;;8.15;3.60;;;;;;;;;;5031789;28;20193;-67
2022/09/26 08:19:07;;;;;;;7.78;3.88;;;;;;;;;;5032794;28;20181;-68
2022/09/26 08:21:33;;;;;;;6.32;3.13;;;;;;;;;;5028707;28;20240;-67
2022/09/26 08:23:58;;;;;;;6.15;3.40;;;;;;;;;;5030636;28;20700;-68
2022/09/26 08:26:24;;;;;;;7.13;3.33;;;;;;;;;;5027891;28;20301;-69
2022/09/26 08:28:50;;;;;;;9.63;3.97;;;;;;;;;;5037429;28;20234;-67
2022/09/26 08:31:16;;;;;;;5.43;2.72;;;;;;;;;;5027950;28;20680;-68
2022/09/26 08:33:43;;;;;;;8.40;3.45;;;;;;;;;;5032866;28;20185;-68
2022/09/26 08:36:10;;;;;;;8.65;3.78;;;;;;;;;;5032416;28;20224;-67
2022/09/26 08:38:36;;;;;;;10.48;3.53;;;;;;;;;;5037804;28;20265;-68
2022/09/26 08:41:15;;;;;;;9.77;4.07;;;;;;;;;;5028101;28;20193;-68
2022/09/26 08:44:06;;;;;;;6.78;3.50;;;;;;;;;;5038147;28;20269;-68
2022/09/26 08:46:58;;;;;;;11.15;3.60;;;;;;;;;;5027589;28;20194;-76
2022/09/26 08:49:59;;;;;;;6.13;3.13;;;;;;;;;;5030888;28;20217;-67
2022/09/26 08:52:24;;;;;;;8.73;3.35;;;;;;;;;;5027186;28;20186;-67
2022/09/26 08:54:52;;;;;;;6.85;3.42;;;;;;;;;;5030482;28;20542;-69
2022/09/26 08:57:23;;;;;;;9.07;3.58;;;;;;;;;;5030370;28;20264;-70
2022/09/26 08:59:48;;;;;;;5.50;3.20;;;;;;;;;;5027705;28;20190;-68
2022/09/26 09:02:32;;;;;;;7.95;3.92;;;;;;;;;;5028830;28;20707;-67
2022/09/26 09:05:16;;;;;;;6.47;3.38;;;;;;;;;;5027553;28;20182;-73
2022/09/26 09:07:41;;;;;;;6.47;3.25;;;;;;;;;;5027228;28;20198;-69
2022/09/26 09:10:14;;;;;;;5.13;3.15;;;;;;;;;;5033029;28;20557;-69
2022/09/26 09:12:57;;;;;;;6.72;3.13;;;;;;;;;;5036631;28;20197;-67
2022/09/26 09:15:29;;;;;;;7.55;3.10;;;;;;;;;;5026480;28;20182;-67
2022/09/26 09:18:28;;;;;;;6.03;3.45;;;;;;;;;;5029511;28;20175;-69
2022/09/26 09:21:06;;;;;;;10.90;3.00;;;;;;;;;;5031540;28;20182;-67
2022/09/26 09:23:40;;;;;;;5.50;2.80;;;;;;;;;;5035004;28;20572;-67
2022/09/26 09:26:18;;;;;;;6.22;3.15;;;;;;;;;;5041474;28;20177;-68
2022/09/26 09:28:46;;;;;;;6.70;3.00;;;;;;;;;;5026760;28;20339;-67
2022/09/26 09:31:14;;;;;;;6.75;3.25;;;;;;;;;;5028147;28;20272;-67
2022/09/26 09:33:46;;;;;;;9.38;3.65;;;;;;;;;;5042351;28;20770;-67
2022/09/26 09:36:15;;;;;;;5.35;3.13;;;;;;;;;;5034967;28;20189;-68
2022/09/26 09:38:45;;;;;;;5.90;3.17;;;;;;;;;;5043326;28;20554;-75
2022/09/26 09:41:46;;;;;;;7.05;2.85;;;;;;;;;;5039494;28;20706;-74
2022/09/26 09:44:26;;;;;;;9.07;3.13;;;;;;;;;;5036783;28;20278;-67
2022/09/26 09:46:52;;;;;;;10.00;3.42;;;;;;;;;;5045054;28;20185;-68
2022/09/26 09:49:22;;;;;;;6.78;3.17;;;;;;;;;;5049155;28;20190;-68
2022/09/26 09:52:06;;;;;;;5.55;2.83;;;;;;;;;;5035814;28;20221;-69
2022/09/26 09:54:43;;;;;;;7.00;2.65;;;;;;;;;;5029603;28;20224;-67
2022/09/26 09:57:24;;;;;;;8.13;3.47;;;;;;;;;;5028396;28;20485;-74
2022/09/26 09:59:55;;;;;;;8.27;2.97;;;;;;;;;;5033487;28;20186;-67
2022/09/26 10:02:50;;;;;;;7.70;3.20;;;;;;;;;;5027209;28;20182;-70
2022/09/26 10:05:18;;;;;;;5.38;2.80;;;;;;;;;;5021522;28;20202;-67
2022/09/26 10:07:47;;;;;;;9.05;3.15;;;;;;;;;;5030463;28;20759;-68
2022/09/26 10:10:20;;;;;;;7.60;3.47;;;;;;;;;;5048691;28;20201;-67
2022/09/26 10:12:48;;;;;;;4.97;3.00;;;;;;;;;;5032655;28;20189;-68
2022/09/26 10:15:25;;;;;;;9.32;3.20;;;;;;;;;;5037551;28;20280;-68
2022/09/26 10:18:20;;;;;;;6.95;3.30;;;;;;;;;;5035918;28;20508;-67
2022/09/26 10:20:52;;;;;;;9.90;3.15;;;;;;;;;;5032366;28;20321;-69
2022/09/26 10:23:38;;;;;;;8.95;2.88;;;;;;;;;;5030044;28;20286;-68
2022/09/26 10:26:12;;;;;;;6.13;2.85;;;;;;;;;;5030291;28;20189;-67
2022/09/26 10:28:51;;;;;;;6.80;3.30;;;;;;;;;;5042157;28;20320;-72
2022/09/26 10:31:28;;;;;;;5.07;3.20;;;;;;;;;;5036002;28;20178;-69
2022/09/26 10:33:58;;;;;;;8.55;3.42;;;;;;;;;;5036912;28;20185;-73
2022/09/26 10:36:36;;;;;;;10.70;3.65;;;;;;;;;;5050497;28;20269;-68
2022/09/26 10:42:13;;;;;;;6.47;3.30;;;;;;;;;;5033267;28;20272;-68
2022/09/26 10:44:40;;;;;;;8.43;2.90;;;;;;;;;;5039561;28;20190;-68
2022/09/26 10:47:11;;;;;;;9.38;3.47;;;;;;;;;;5030069;28;20232;-74
2022/09/26 10:49:45;;;;;;;6.30;3.17;;;;;;;;;;5029445;28;20210;-69
2022/09/26 10:52:22;;;;;;;7.80;3.00;;;;;;;;;;5042237;28;20200;-68
2022/09/26 10:55:31;;;;;;;6.28;2.95;;;;;;;;;;5033468;28;20227;-68
2022/09/26 10:58:00;;;;;;;3.80;3.17;;;;;;;;;;5041418;28;20182;-67
2022/09/26 11:00:32;;;;;;;6.05;2.80;;;;;;;;;;5031282;28;20212;-68
2022/09/26 11:02:57;;;;;;;6.28;3.10;;;;;;;;;;5036897;28;20661;-69
2022/09/26 11:08:09;;;;;;;8.95;2.85;;;;;;;;;;5030592;28;20301;-68
2022/09/26 11:10:37;;;;;;;6.05;3.00;;;;;;;;;;5036416;28;20190;-68
2022/09/26 11:13:15;;;;;;;5.75;2.20;;;;;;;;;;5037786;28;20189;-75
2022/09/26 11:15:59;;;;;;;7.18;2.80;;;;;;;;;;5031829;28;20182;-72
2022/09/26 11:18:56;;;;;;;7.00;3.33;;;;;;;;;;5035131;28;20223;-67
2022/09/26 11:21:48;;;;;;;2.97;2.67;;;;;;;;;;5027164;28;20189;-71
2022/09/26 11:24:41;;;;;;;5.53;2.75;;;;;;;;;;5033121;28;20205;-67
2022/09/26 11:27:21;;;;;;;7.53;3.35;;;;;;;;;;5019997;28;20190;-68
2022/09/26 11:30:11;;;;;;;4.45;2.85;;;;;;;;;;5030058;28;20258;-68
2022/09/26 11:32:42;;;;;;;6.60;3.28;;;;;;;;;;5033667;28;20632;-68
2022/09/26 11:36:05;;;;;;;8.52;3.50;;;;;;;;;;5039517;28;20193;-71
2022/09/26 11:38:45;;;;;;;5.22;3.22;;;;;;;;;;5006192;28;20294;-70
2022/09/26 11:41:36;;;;;;;7.30;3.60;;;;;;;;;;5024485;28;20627;-70
2022/09/26 11:44:08;;;;;;;7.03;3.83;;;;;;;;;;5031189;28;20536;-71
2022/09/26 11:46:46;;;;;;;8.07;3.80;;;;;;;;;;5030928;28;20186;-71
2022/09/26 11:49:49;;;;;;;7.20;3.75;;;;;;;;;;5028447;28;20194;-71
2022/09/26 11:52:28;;;;;;;10.32;4.18;;;;;;;;;;5030407;28;20236;-72
2022/09/26 11:54:59;;;;;;;7.82;3.97;;;;;;;;;;5027372;28;20267;-73
2022/09/26 11:57:33;;;;;;;6.03;4.00;;;;;;;;;;5042577;28;20236;-74
2022/09/26 12:00:25;;;;;;;6.57;3.85;;;;;;;;;;5035282;28;20243;-72
2022/09/26 12:03:10;;;;;;;7.60;4.20;;;;;;;;;;5031313;28;20178;-74
2022/09/26 12:05:43;;;;;;;4.63;3.75;;;;;;;;;;5027460;28;20174;-73
2022/09/26 12:08:39;;;;;;;7.13;4.10;;;;;;;;;;5028001;28;20194;-71
2022/09/26 12:11:33;;;;;;;6.57;3.50;;;;;;;;;;5027742;28;20548;-72
2022/09/26 12:14:33;;;;;;;5.68;3.50;;;;;;;;;;5028703;28;20241;-74
2022/09/26 12:17:25;;;;;;;5.88;3.70;;;;;;;;;;5028075;28;20239;-73
2022/09/26 12:20:09;;;;;;;5.93;3.65;;;;;;;;;;5030260;28;20190;-74
2022/09/26 12:22:41;;;;;;;5.38;3.72;;;;;;;;;;5031803;28;20174;-74
2022/09/26 12:25:25;;;;;;;5.45;3.95;;;;;;;;;;5031802;28;20232;-75
2022/09/26 12:28:16;;;;;;;7.80;4.13;;;;;;;;;;5032566;28;20202;-74
2022/09/26 12:30:57;;;;;;;5.10;3.17;;;;;;;;;;5027460;28;20226;-75
2022/09/26 12:33:42;;;;;;;4.97;3.63;;;;;;;;;;5026822;28;20206;-73
2022/09/26 12:36:22;;;;;;;6.93;3.72;;;;;;;;;;5026627;28;20567;-76
2022/09/26 12:39:03;;;;;;;4.50;3.33;;;;;;;;;;5026672;28;20249;-73
2022/09/26 12:41:43;;;;;;;6.57;3.38;;;;;;;;;;5031232;28;20272;-73
2022/09/26 12:44:20;;;;;;;5.70;3.65;;;;;;;;;;5028475;28;20217;-72
2022/09/26 12:47:13;;;;;;;4.75;3.38;;;;;;;;;;5025987;28;20828;-74
2022/09/26 12:50:07;;;;;;;3.72;3.00;;;;;;;;;;5029541;28;20237;-75
2022/09/26 12:53:09;;;;;;;5.57;3.05;;;;;;;;;;5037622;28;20243;-74
2022/09/26 12:56:01;;;;;;;3.92;2.85;;;;;;;;;;5027074;28;20217;-73
2022/09/26 12:58:43;;;;;;;5.72;3.00;;;;;;;;;;5024230;28;20194;-72
2022/09/26 13:01:42;;;;;;;3.97;2.85;;;;;;;;;;5026893;28;20173;-72
2022/09/26 13:04:38;;;;;;;3.20;2.42;;;;;;;;;;5028756;28;20183;-75
2022/09/26 13:07:38;;;;;;;3.05;2.78;;;;;;;;;;5028457;28;20258;-72
2022/09/26 13:10:22;;;;;;;6.32;2.95;;;;;;;;;;5030666;28;20255;-73
2022/09/26 13:13:12;;;;;;;4.50;2.47;;;;;;;;;;5027961;28;20285;-75
2022/09/26 13:15:58;;;;;;;4.50;2.38;;;;;;;;;;5035819;28;20200;-70
2022/09/26 13:18:36;;;;;;;6.93;2.90;;;;;;;;;;5034430;28;20182;-72
2022/09/26 13:21:10;;;;;;;3.50;2.40;;;;;;;;;;5030874;28;20287;-71
2022/09/26 13:23:39;;;;;;;2.83;2.58;;;;;;;;;;5030546;28;20234;-72
2022/09/26 13:26:16;;;;;;;5.70;2.60;;;;;;;;;;5029292;28;20656;-71
2022/09/26 13:28:47;;;;;;;3.35;2.50;;;;;;;;;;5038300;28;20239;-71
2022/09/26 13:31:23;;;;;;;2.60;2.22;;;;;;;;;;5037829;28;20177;-71
2022/09/26 13:33:55;;;;;;;3.47;2.42;;;;;;;;;;5029734;28;20257;-71
2022/09/26 13:36:22;;;;;;;5.50;2.05;;;;;;;;;;5031128;28;20182;-72
2022/09/26 13:39:17;;;;;;;5.70;2.30;;;;;;;;;;5032380;28;20182;-71
2022/09/26 13:41:55;;;;;;;4.30;1.90;;;;;;;;;;5030445;28;20297;-71
2022/09/26 13:44:46;;;;;;;4.03;2.25;;;;;;;;;;5027691;28;20279;-71
2022/09/26 13:47:20;;;;;;;3.28;1.90;;;;;;;;;;5030485;28;20242;-72
2022/09/26 13:49:57;;;;;;;2.13;1.92;;;;;;;;;;5029067;28;20186;-71
2022/09/26 13:53:07;;;;;;;3.05;2.10;;;;;;;;;;5028170;28;20193;-71
2022/09/26 13:55:34;;;;;;;3.88;2.05;;;;;;;;;;5016776;28;20653;-71
2022/09/26 13:58:06;;;;;;;4.28;2.40;;;;;;;;;;5038968;28;20186;-71
2022/09/26 14:00:37;;;;;;;5.38;2.15;;;;;;;;;;5034159;28;20178;-72
2022/09/26 14:03:08;;;;;;;3.75;2.20;;;;;;;;;;5029848;28;20706;-70
2022/09/26 14:05:42;;;;;;;3.08;2.20;;;;;;;;;;5033055;28;20218;-71
2022/09/26 14:11:29;;;;;;;2.33;1.67;;;;;;;;;;5031656;28;20278;-72
2022/09/26 14:14:16;;;;;;;3.00;2.10;;;;;;;;;;5032483;28;20205;-72
2022/09/26 14:16:43;;;;;;;2.67;2.28;;;;;;;;;;5028908;28;20269;-72
2022/09/26 14:19:13;;;;;;;2.30;2.10;;;;;;;;;;5029762;28;20650;-72
2022/09/26 14:22:01;;;;;;;2.10;1.80;;;;;;;;;;5035559;28;20209;-72
2022/09/26 14:24:38;;;;;;;2.28;1.90;;;;;;;;;;5029280;28;20674;-72
2022/09/26 14:27:09;;;;;;;2.45;1.90;;;;;;;;;;5028791;28;20268;-74
2022/09/26 14:29:38;;;;;;;2.38;2.08;;;;;;;;;;5030533;28;20237;-74
2022/09/26 14:32:13;;;;;;;3.45;1.98;;;;;;;;;;5029480;28;20223;-74
2022/09/26 14:34:46;;;;;;;3.90;2.40;;;;;;;;;;5032138;28;20311;-73
2022/09/26 14:37:23;;;;;;;3.78;2.08;;;;;;;;;;5034592;28;20186;-72
2022/09/26 14:39:59;;;;;;;3.25;2.08;;;;;;;;;;5038354;28;20181;-73
2022/09/26 14:42:45;;;;;;;3.03;2.00;;;;;;;;;;5039961;28;20204;-74
2022/09/26 14:45:59;;;;;;;2.70;2.50;;;;;;;;;;5030108;28;20750;-74
2022/09/26 14:48:36;;;;;;;3.40;2.55;;;;;;;;;;5029378;28;20201;-72
2022/09/26 14:51:14;;;;;;;2.40;2.20;;;;;;;;;;5042330;28;20185;-72
2022/09/26 14:53:47;;;;;;;2.13;1.95;;;;;;;;;;5034262;28;20248;-72
2022/09/26 14:56:40;;;;;;;2.33;2.13;;;;;;;;;;5047469;28;20209;-72
2022/09/26 14:59:26;;;;;;;2.50;2.03;;;;;;;;;;5034636;28;20590;-73
2022/09/26 15:02:09;;;;;;;4.28;2.35;;;;;;;;;;5033504;28;20193;-74
2022/09/26 15:04:35;;;;;;;2.30;2.10;;;;;;;;;;5037520;28;20532;-74
2022/09/26 15:07:03;;;;;;;4.30;2.45;;;;;;;;;;5035842;28;20562;-74
2022/09/26 15:09:41;;;;;;;3.50;2.60;;;;;;;;;;5031884;28;20205;-74
2022/09/26 15:12:15;;;;;;;2.88;2.10;;;;;;;;;;5039837;28;20193;-74
2022/09/26 15:15:06;;;;;;;2.97;2.50;;;;;;;;;;5039986;28;20174;-74
2022/09/26 15:17:38;;;;;;;3.70;2.35;;;;;;;;;;5029361;28;20658;-74
2022/09/26 15:20:07;;;;;;;3.00;2.42;;;;;;;;;;5043249;28;20173;-74
2022/09/26 15:22:33;;;;;;;2.88;2.38;;;;;;;;;;5039796;28;20189;-75
2022/09/26 15:25:21;;;;;;;2.85;2.22;;;;;;;;;;5028484;28;20182;-75
2022/09/26 15:27:54;;;;;;;4.18;2.25;;;;;;;;;;5040059;28;20669;-74
2022/09/26 15:30:26;;;;;;;2.38;1.90;;;;;;;;;;5034250;28;20230;-74
2022/09/26 15:32:56;;;;;;;2.00;1.70;;;;;;;;;;5039788;28;20295;-75
2022/09/26 15:35:21;;;;;;;2.40;2.20;;;;;;;;;;5046539;28;20186;-72
2022/09/26 15:37:47;;;;;;;2.20;1.98;;;;;;;;;;5046187;28;20201;-72